This is the latest recevied weather packets stored in our database for station/object MM1PTT-13. If no packets are shown the sender has not sent any weather packets the latest 10 day(s).
| Time | Temp. | Humidity | Pressure | Rain* | Wind** | Luminosity | Snow |
|---|---|---|---|---|---|---|---|
| 1777498843 | 8.89° C | 76% | 999.7 hPa | 0 mm | - | 0 W/m² | - |
| 1777498542 | 8.89° C | 75% | 1000 hPa | 0 mm | - | 0 W/m² | - |
| 1777498243 | 9.44° C | 74% | 1000 hPa | 0 mm | - | 0 W/m² | - |
| 1777497943 | 9.44° C | 73% | 1000 hPa | 0 mm | - | 0 W/m² | - |
| 1777497642 | 9.44° C | 73% | 1000 hPa | 0 mm | - | 0 W/m² | - |
| 1777497343 | 10° C | 72% | 999.7 hPa | 0 mm | - | 0 W/m² | - |
| 1777497043 | 10° C | 72% | 1000 hPa | 0 mm | - | 0 W/m² | - |
| 1777496744 | 10° C | 71% | 1000 hPa | 0 mm | - | 0 W/m² | - |
| 1777496442 | 10.56° C | 70% | 999.7 hPa | 0 mm | - | 0 W/m² | - |
| 1777496144 | 10.56° C | 69% | 999.7 hPa | 0 mm | - | 0 W/m² | - |
| 1777495543 | 10.56° C | 68% | 999.7 hPa | 0 mm | - | 0 W/m² | - |
| 1777494942 | 11.11° C | 67% | 999.7 hPa | 0 mm | - | 0 W/m² | - |
| 1777494643 | 11.11° C | 67% | 999.3 hPa | 0 mm | - | 0 W/m² | - |
| 1777494344 | 11.11° C | 66% | 999.7 hPa | 0 mm | - | 0 W/m² | - |
| 1777492843 | 11.67° C | 64% | 999.7 hPa | 0 mm | - | 3 W/m² | - |
| 1777492243 | 12.22° C | 63% | 999.3 hPa | 0 mm | - | 7 W/m² | - |
| 1777491342 | 12.78° C | 61% | 998.6 hPa | 0 mm | - | 15 W/m² | - |
| 1777491043 | 12.78° C | 61% | 999 hPa | 0 mm | - | 17 W/m² | - |
| 1777490743 | 12.78° C | 61% | 998.6 hPa | 0 mm | - | 16 W/m² | - |
| 1777489543 | 13.89° C | 59% | 998.6 hPa | 0 mm | - | 26 W/m² | - |
| 1777489243 | 13.89° C | 58% | 998.6 hPa | 0 mm | - | 28 W/m² | - |
| 1777488943 | 13.89° C | 58% | 999 hPa | 0 mm | - | 30 W/m² | - |
| 1777488643 | 14.44° C | 58% | 999 hPa | 0 mm | - | 33 W/m² | - |
| 1777488043 | 14.44° C | 58% | 998.6 hPa | 0 mm | - | 36 W/m² | - |
| 1777487143 | 14.44° C | 57% | 998.6 hPa | 0 mm | - | 41 W/m² | - |
* Rain latest hour (hover to see other rain measurements)
** Current wind speed in m/s (hover to see current wind gust speed)